createdAt,value
2017-04-25T00:00:19.491Z,12.80
2017-04-25T00:01:23.673Z,12.80
2017-04-25T00:02:27.820Z,12.70
2017-04-25T00:03:31.829Z,12.60
2017-04-25T00:04:35.533Z,12.50
2017-04-25T00:05:39.613Z,12.50
2017-04-25T00:06:43.557Z,12.60
2017-04-25T00:07:47.513Z,12.50
2017-04-25T00:08:51.438Z,12.60
2017-04-25T00:09:55.322Z,12.70
2017-04-25T00:10:59.353Z,12.80
2017-04-25T00:12:03.160Z,12.70
2017-04-25T00:13:07.299Z,12.70
2017-04-25T00:14:11.763Z,12.70
2017-04-25T00:15:15.985Z,12.60
2017-04-25T00:16:19.890Z,12.50
2017-04-25T00:17:24.093Z,12.60
2017-04-25T00:18:28.413Z,12.70
2017-04-25T00:19:32.678Z,12.80
2017-04-25T00:20:36.943Z,12.70
2017-04-25T00:21:40.981Z,12.80
2017-04-25T00:22:45.027Z,12.80
2017-04-25T00:23:48.883Z,12.70
2017-04-25T00:24:53.031Z,12.80
2017-04-25T00:25:56.729Z,12.80
2017-04-25T00:27:00.954Z,12.90
2017-04-25T00:28:05.012Z,13.00
2017-04-25T00:29:08.986Z,12.90
2017-04-25T00:30:13.559Z,12.90
2017-04-25T00:31:17.645Z,12.80
2017-04-25T00:32:21.831Z,12.80
2017-04-25T00:33:25.619Z,12.90
2017-04-25T00:34:29.919Z,12.90
2017-04-25T00:35:34.171Z,12.80
2017-04-25T00:36:38.102Z,12.90
2017-04-25T00:37:43.047Z,12.80
2017-04-25T00:38:47.055Z,12.80
2017-04-25T00:39:51.135Z,12.90
2017-04-25T00:40:55.037Z,12.90
2017-04-25T00:41:59.281Z,13.00
2017-04-25T00:43:03.403Z,13.00
2017-04-25T00:44:07.363Z,13.10
2017-04-25T00:45:11.523Z,12.90
2017-04-25T00:46:15.676Z,12.90
2017-04-25T00:47:19.480Z,12.80
2017-04-25T00:48:23.293Z,12.80
2017-04-25T00:49:27.454Z,12.90
2017-04-25T00:50:31.343Z,12.90
2017-04-25T00:51:35.064Z,12.90
2017-04-25T00:52:39.315Z,13.00
2017-04-25T00:53:43.638Z,12.90
2017-04-25T00:54:47.849Z,12.90
2017-04-25T00:55:52.808Z,12.90
2017-04-25T00:56:58.144Z,13.00
2017-04-25T00:58:01.985Z,12.90
2017-04-25T00:59:07.618Z,12.80
2017-04-25T01:00:11.506Z,12.80
2017-04-25T01:01:15.784Z,12.70
2017-04-25T01:02:19.914Z,12.60
2017-04-25T01:03:24.396Z,12.60
2017-04-25T01:04:28.624Z,12.50
2017-04-25T01:05:32.525Z,12.60
2017-04-25T01:06:37.314Z,12.60
2017-04-25T01:07:41.355Z,12.60
2017-04-25T01:08:45.329Z,12.50
2017-04-25T01:09:49.520Z,12.40
2017-04-25T01:10:53.594Z,12.40
2017-04-25T01:11:57.448Z,12.40
2017-04-25T01:13:02.531Z,12.40
2017-04-25T01:14:06.971Z,12.40
2017-04-25T01:15:11.151Z,12.50
2017-04-25T01:16:15.221Z,12.50
2017-04-25T01:17:19.226Z,12.60
2017-04-25T01:18:23.613Z,12.40
2017-04-25T01:19:27.798Z,12.30
2017-04-25T01:20:31.984Z,12.20
2017-04-25T01:21:36.097Z,12.20
2017-04-25T01:22:40.126Z,12.20
2017-04-25T01:23:44.341Z,12.30
2017-04-25T01:24:49.830Z,12.30
2017-04-25T01:25:53.568Z,12.30
2017-04-25T01:26:57.643Z,12.30
2017-04-25T01:28:01.841Z,12.30
2017-04-25T01:29:06.029Z,12.30
2017-04-25T01:30:11.604Z,12.30
2017-04-25T01:31:15.817Z,12.30
2017-04-25T01:32:19.487Z,12.20
2017-04-25T01:33:24.510Z,12.20
2017-04-25T01:34:31.868Z,12.20
2017-04-25T01:35:36.513Z,12.20
2017-04-25T01:36:41.452Z,12.30
2017-04-25T01:37:45.937Z,12.20
2017-04-25T01:38:49.968Z,12.20
2017-04-25T01:39:53.979Z,12.30
2017-04-25T01:40:58.022Z,12.30
2017-04-25T01:42:01.468Z,12.30
2017-04-25T01:43:05.648Z,12.40
2017-04-25T01:44:10.570Z,12.30
2017-04-25T01:45:14.768Z,12.40
2017-04-25T01:46:19.068Z,12.30
2017-04-25T01:47:23.191Z,12.30
2017-04-25T01:48:27.316Z,12.30
2017-04-25T01:49:31.501Z,12.30
2017-04-25T01:50:35.492Z,12.30
2017-04-25T01:51:39.200Z,12.40
2017-04-25T01:52:43.337Z,12.40
2017-04-25T01:53:47.460Z,12.50
2017-04-25T01:54:51.586Z,12.50
2017-04-25T01:55:56.113Z,12.60
2017-04-25T01:57:01.950Z,12.50
2017-04-25T01:58:06.127Z,12.50
2017-04-25T01:59:10.364Z,12.40
2017-04-25T02:00:14.335Z,12.50
2017-04-25T02:01:19.479Z,12.40
2017-04-25T02:02:23.420Z,12.30
2017-04-25T02:03:27.645Z,12.30
2017-04-25T02:04:31.571Z,12.20
2017-04-25T02:05:35.443Z,12.00
2017-04-25T02:06:39.531Z,12.00
2017-04-25T02:07:43.748Z,12.00
2017-04-25T02:08:48.025Z,12.00
2017-04-25T02:09:52.229Z,11.90
2017-04-25T02:10:56.335Z,11.90
2017-04-25T02:12:00.246Z,12.00
2017-04-25T02:13:04.092Z,12.00
2017-04-25T02:14:08.108Z,11.90
2017-04-25T02:15:12.090Z,11.80
2017-04-25T02:16:16.133Z,11.70
2017-04-25T02:17:20.309Z,11.80
2017-04-25T02:18:25.238Z,11.80
2017-04-25T02:19:29.389Z,11.70
2017-04-25T02:20:33.550Z,11.70
2017-04-25T02:21:38.225Z,11.70
2017-04-25T02:22:42.397Z,11.70
2017-04-25T02:23:47.160Z,11.70
2017-04-25T02:24:51.422Z,11.80
2017-04-25T02:25:55.679Z,11.80
2017-04-25T02:26:59.784Z,11.80
2017-04-25T02:28:03.888Z,11.70
2017-04-25T02:29:07.573Z,11.60
2017-04-25T02:30:11.874Z,11.60
2017-04-25T02:31:16.049Z,11.60
2017-04-25T02:32:20.464Z,11.70
2017-04-25T02:33:25.538Z,11.60
2017-04-25T02:34:29.731Z,11.70
2017-04-25T02:35:33.647Z,11.70
2017-04-25T02:36:37.834Z,11.70
2017-04-25T02:37:41.835Z,11.70
2017-04-25T02:38:45.758Z,11.80
2017-04-25T02:39:50.584Z,11.80
2017-04-25T02:40:54.823Z,11.70
2017-04-25T02:41:58.924Z,11.80
2017-04-25T02:43:03.024Z,11.70
2017-04-25T02:44:07.344Z,11.70
2017-04-25T02:45:11.476Z,11.70
2017-04-25T02:46:16.058Z,11.60
2017-04-25T02:47:20.936Z,11.60
2017-04-25T02:48:24.823Z,11.60
2017-04-25T02:49:29.379Z,11.60
2017-04-25T02:50:33.372Z,11.50
2017-04-25T02:51:37.357Z,11.50
2017-04-25T02:52:41.448Z,11.50
2017-04-25T02:53:45.821Z,11.50
2017-04-25T02:54:49.813Z,11.50
2017-04-25T02:55:54.727Z,11.50
2017-04-25T02:56:58.960Z,11.60
2017-04-25T02:58:03.270Z,11.60
2017-04-25T02:59:07.229Z,11.60
2017-04-25T03:00:11.338Z,11.60
2017-04-25T03:01:16.255Z,11.70
2017-04-25T03:02:20.497Z,11.70
2017-04-25T03:03:24.851Z,11.80
2017-04-25T03:04:28.835Z,11.80
2017-04-25T03:05:33.891Z,11.70
2017-04-25T03:06:37.854Z,11.80
2017-04-25T03:07:42.096Z,11.80
2017-04-25T03:08:47.111Z,11.80
2017-04-25T03:09:51.262Z,11.90
2017-04-25T03:10:55.515Z,11.80
2017-04-25T03:11:59.466Z,11.80
2017-04-25T03:13:03.268Z,11.80
2017-04-25T03:14:07.888Z,11.80
2017-04-25T03:15:12.014Z,11.90
2017-04-25T03:16:16.528Z,11.90
2017-04-25T03:17:20.441Z,11.90
2017-04-25T03:18:25.144Z,11.90
2017-04-25T03:19:29.647Z,11.90
2017-04-25T03:20:33.734Z,11.90
2017-04-25T03:21:38.026Z,11.90
2017-04-25T03:22:42.063Z,11.80
2017-04-25T03:23:46.186Z,11.70
2017-04-25T03:24:50.402Z,11.70
2017-04-25T03:25:55.109Z,11.60
2017-04-25T03:26:59.126Z,11.70
2017-04-25T03:28:03.449Z,11.70
2017-04-25T03:29:07.567Z,11.80
2017-04-25T03:30:11.969Z,11.70
2017-04-25T03:31:15.729Z,11.70
2017-04-25T03:32:19.722Z,11.70
2017-04-25T03:33:23.700Z,11.70
2017-04-25T03:34:27.891Z,11.70
2017-04-25T03:35:31.991Z,11.70
2017-04-25T03:36:36.125Z,11.70
2017-04-25T03:37:40.374Z,11.60
2017-04-25T03:38:44.442Z,11.60
2017-04-25T03:39:48.649Z,11.50
2017-04-25T03:40:52.566Z,11.60
2017-04-25T03:41:57.016Z,11.60
2017-04-25T03:43:01.057Z,11.60
2017-04-25T03:44:06.189Z,11.60
2017-04-25T03:45:10.368Z,11.60
2017-04-25T03:46:14.377Z,11.60
2017-04-25T03:47:18.223Z,11.60
2017-04-25T03:48:22.292Z,11.60
2017-04-25T03:49:27.344Z,11.60
2017-04-25T03:50:31.879Z,11.60
2017-04-25T03:51:35.745Z,11.70
2017-04-25T03:52:40.712Z,11.60
2017-04-25T03:53:44.440Z,11.70
2017-04-25T03:54:48.376Z,11.60
2017-04-25T03:55:52.374Z,11.70
2017-04-25T03:56:56.629Z,11.70
2017-04-25T03:58:01.285Z,11.70
2017-04-25T03:59:05.755Z,11.60
2017-04-25T04:00:09.667Z,11.60
2017-04-25T04:01:14.606Z,11.60
2017-04-25T04:02:18.557Z,11.50
2017-04-25T04:03:22.483Z,11.50
2017-04-25T04:04:26.666Z,11.40
2017-04-25T04:05:32.772Z,11.50
2017-04-25T04:06:36.632Z,11.50
2017-04-25T04:07:40.907Z,11.50
2017-04-25T04:08:44.699Z,11.40
2017-04-25T04:09:48.741Z,11.30
2017-04-25T04:10:52.499Z,11.20
2017-04-25T04:11:56.353Z,11.20
2017-04-25T04:13:00.750Z,11.00
2017-04-25T04:14:04.247Z,11.00
2017-04-25T04:15:08.549Z,11.00
2017-04-25T04:16:11.890Z,10.90
2017-04-25T04:17:15.795Z,10.80
2017-04-25T04:18:19.684Z,10.90
2017-04-25T04:19:23.767Z,10.90
2017-04-25T04:20:28.623Z,10.80
2017-04-25T04:21:32.556Z,10.70
2017-04-25T04:22:36.582Z,10.80
2017-04-25T04:23:40.513Z,10.80
2017-04-25T04:24:44.530Z,10.80
2017-04-25T04:25:48.730Z,10.80
2017-04-25T04:26:52.981Z,10.80
2017-04-25T04:27:57.936Z,10.80
2017-04-25T04:29:01.667Z,10.70
2017-04-25T04:30:05.740Z,10.70
2017-04-25T04:31:09.914Z,10.60
2017-04-25T04:32:13.786Z,10.50
2017-04-25T04:33:17.754Z,10.40
2017-04-25T04:34:21.241Z,10.30
2017-04-25T04:35:25.280Z,10.30
2017-04-25T04:36:29.719Z,10.20
2017-04-25T04:37:33.754Z,10.20
2017-04-25T04:38:37.899Z,10.20
2017-04-25T04:39:42.147Z,10.20
2017-04-25T04:40:45.668Z,10.10
2017-04-25T04:41:50.025Z,10.10
2017-04-25T04:42:54.847Z,10.10
2017-04-25T04:43:59.007Z,10.20
2017-04-25T04:45:02.900Z,10.30
2017-04-25T04:46:07.018Z,10.30
2017-04-25T04:47:11.298Z,10.40
2017-04-25T04:48:15.486Z,10.40
2017-04-25T04:49:19.366Z,10.40
2017-04-25T04:50:23.398Z,10.30
2017-04-25T04:51:27.107Z,10.30
2017-04-25T04:52:31.197Z,10.30
2017-04-25T04:53:35.297Z,10.30
2017-04-25T04:54:39.443Z,10.30
2017-04-25T04:55:43.294Z,10.30
2017-04-25T04:56:47.168Z,10.30
2017-04-25T04:57:51.332Z,10.30
2017-04-25T04:58:56.190Z,10.40
2017-04-25T05:00:00.450Z,10.50
2017-04-25T05:01:04.530Z,10.60
2017-04-25T05:02:08.526Z,10.60
2017-04-25T05:03:12.634Z,10.60
2017-04-25T05:04:16.044Z,10.60
2017-04-25T05:05:20.244Z,10.50
2017-04-25T05:06:24.144Z,10.40
2017-04-25T05:07:28.104Z,10.30
2017-04-25T05:08:33.308Z,10.30
2017-04-25T05:09:38.377Z,10.30
2017-04-25T05:10:42.286Z,10.30
2017-04-25T05:11:46.323Z,10.40
2017-04-25T05:12:50.645Z,10.40
2017-04-25T05:13:54.951Z,10.50
2017-04-25T05:14:59.807Z,10.50
2017-04-25T05:16:03.711Z,10.60
2017-04-25T05:17:07.416Z,10.60
2017-04-25T05:18:11.312Z,10.60
2017-04-25T05:19:15.267Z,10.70
2017-04-25T05:20:19.134Z,10.70
2017-04-25T05:21:23.397Z,10.70
2017-04-25T05:22:27.270Z,10.70
2017-04-25T05:23:31.304Z,10.80
2017-04-25T05:24:35.472Z,10.80
2017-04-25T05:25:40.265Z,10.80
2017-04-25T05:26:44.264Z,10.80
2017-04-25T05:27:48.103Z,10.80
2017-04-25T05:28:52.177Z,10.80
2017-04-25T05:29:56.303Z,10.70
2017-04-25T05:31:00.356Z,10.70
2017-04-25T05:32:04.487Z,10.60
2017-04-25T05:33:08.477Z,10.70
2017-04-25T05:34:12.443Z,10.70
2017-04-25T05:35:16.367Z,10.70
2017-04-25T05:36:20.444Z,10.80
2017-04-25T05:37:24.545Z,10.80
2017-04-25T05:38:28.711Z,10.80
2017-04-25T05:39:33.661Z,10.80
2017-04-25T05:40:37.609Z,10.80
2017-04-25T05:41:41.717Z,10.70
2017-04-25T05:42:45.367Z,10.60
2017-04-25T05:43:49.346Z,10.60
2017-04-25T05:44:53.242Z,10.60
2017-04-25T05:45:57.328Z,10.50
2017-04-25T05:47:01.374Z,10.50
2017-04-25T05:48:05.171Z,10.40
2017-04-25T05:49:09.158Z,10.50
2017-04-25T05:50:12.871Z,10.50
2017-04-25T05:51:17.001Z,10.60
2017-04-25T05:52:21.262Z,10.60
2017-04-25T05:53:25.206Z,10.60
2017-04-25T05:54:29.382Z,10.70
2017-04-25T05:55:33.475Z,10.70
2017-04-25T05:56:37.639Z,10.80
2017-04-25T05:57:42.666Z,10.80
2017-04-25T05:58:46.739Z,10.90
2017-04-25T05:59:51.624Z,10.90
2017-04-25T06:00:55.519Z,11.00
2017-04-25T06:01:59.761Z,11.00
2017-04-25T06:03:03.923Z,11.00
2017-04-25T06:04:07.836Z,11.10
2017-04-25T06:05:12.134Z,11.10
2017-04-25T06:06:16.063Z,11.10
2017-04-25T06:07:20.135Z,11.00
2017-04-25T06:08:24.117Z,10.80
2017-04-25T06:09:28.343Z,10.80
2017-04-25T06:10:33.988Z,10.70
2017-04-25T06:11:38.507Z,10.60
2017-04-25T06:12:43.025Z,10.60
2017-04-25T06:13:47.042Z,10.50
2017-04-25T06:14:51.088Z,10.50
2017-04-25T06:15:56.275Z,10.50
2017-04-25T06:17:00.239Z,10.50
2017-04-25T06:18:04.846Z,10.50
2017-04-25T06:19:08.874Z,10.60
2017-04-25T06:20:13.003Z,10.60
2017-04-25T06:21:17.121Z,10.50
2017-04-25T06:22:21.898Z,10.40
2017-04-25T06:23:25.964Z,10.40
2017-04-25T06:24:29.803Z,10.40
2017-04-25T06:25:33.911Z,10.30
2017-04-25T06:26:38.762Z,10.30
2017-04-25T06:27:43.665Z,10.30
2017-04-25T06:28:47.759Z,10.30
2017-04-25T06:29:51.502Z,10.30
2017-04-25T06:30:55.665Z,10.40
2017-04-25T06:31:59.909Z,10.30
2017-04-25T06:33:03.768Z,10.40
2017-04-25T06:34:07.704Z,10.50
2017-04-25T06:35:11.615Z,10.60
2017-04-25T06:36:15.544Z,10.60
2017-04-25T06:37:19.373Z,10.60
2017-04-25T06:38:23.654Z,10.60
2017-04-25T06:39:27.124Z,10.60
2017-04-25T06:40:31.055Z,10.60
2017-04-25T06:41:34.833Z,10.60
2017-04-25T06:42:38.898Z,10.70
2017-04-25T06:43:42.910Z,10.70
2017-04-25T06:44:47.058Z,10.70
2017-04-25T06:45:50.946Z,10.70
2017-04-25T06:46:54.817Z,10.70
2017-04-25T06:47:58.918Z,10.70
2017-04-25T06:49:02.947Z,10.70
2017-04-25T06:50:07.248Z,10.70
2017-04-25T06:51:11.347Z,10.60
2017-04-25T06:52:15.590Z,10.60
2017-04-25T06:53:19.792Z,10.70
2017-04-25T06:54:23.582Z,10.60
2017-04-25T06:55:27.359Z,10.60
2017-04-25T06:56:31.292Z,10.60
2017-04-25T06:57:35.183Z,10.60
2017-04-25T06:58:38.978Z,10.50
2017-04-25T06:59:43.007Z,10.50
2017-04-25T07:00:48.916Z,10.50
2017-04-25T07:01:53.791Z,10.50
2017-04-25T07:02:57.734Z,10.40
2017-04-25T07:04:01.629Z,10.40
2017-04-25T07:05:05.365Z,10.40
2017-04-25T07:06:09.394Z,10.40
2017-04-25T07:07:13.542Z,10.30
2017-04-25T07:08:17.503Z,10.20
2017-04-25T07:09:21.554Z,10.10
2017-04-25T07:10:25.343Z,10.00
2017-04-25T07:11:30.015Z,10.00
2017-04-25T07:12:33.979Z,9.90
2017-04-25T07:13:37.795Z,9.90
2017-04-25T07:14:41.664Z,9.80
2017-04-25T07:15:45.541Z,9.80
2017-04-25T07:16:49.376Z,9.80
2017-04-25T07:17:53.305Z,9.70
2017-04-25T07:18:57.154Z,9.80
2017-04-25T07:20:01.923Z,9.80
2017-04-25T07:21:05.514Z,9.80
2017-04-25T07:22:09.401Z,9.80
2017-04-25T07:23:13.603Z,9.80
2017-04-25T07:24:17.822Z,9.70
2017-04-25T07:25:21.998Z,9.70
2017-04-25T07:26:26.219Z,9.70
2017-04-25T07:27:30.426Z,9.70
2017-04-25T07:28:34.416Z,9.60
2017-04-25T07:29:38.045Z,9.70
2017-04-25T07:30:41.866Z,9.70
2017-04-25T07:31:46.561Z,9.60
2017-04-25T07:32:50.379Z,9.60
2017-04-25T07:33:54.326Z,9.60
2017-04-25T07:34:58.229Z,9.60
2017-04-25T07:36:02.304Z,9.60
2017-04-25T07:37:05.998Z,9.60
2017-04-25T07:38:10.517Z,9.60
2017-04-25T07:39:14.703Z,9.60
2017-04-25T07:40:19.374Z,9.60
2017-04-25T07:41:23.078Z,9.60
2017-04-25T07:42:26.525Z,9.50
2017-04-25T07:43:30.492Z,9.50
2017-04-25T07:44:34.530Z,9.60
2017-04-25T07:45:38.384Z,9.50
2017-04-25T07:46:42.877Z,9.50
2017-04-25T07:47:46.662Z,9.50
2017-04-25T07:48:50.845Z,9.60
2017-04-25T07:49:54.568Z,9.60
2017-04-25T07:50:58.205Z,9.60
2017-04-25T07:52:02.010Z,9.60
2017-04-25T07:53:05.744Z,9.60
2017-04-25T07:54:09.815Z,9.70
2017-04-25T07:55:13.786Z,9.60
2017-04-25T07:56:18.050Z,9.60
2017-04-25T07:57:21.835Z,9.60
2017-04-25T07:58:25.767Z,9.50
2017-04-25T07:59:29.874Z,9.50
2017-04-25T08:00:33.973Z,9.50
2017-04-25T08:01:39.400Z,9.50
2017-04-25T08:02:43.497Z,9.50
2017-04-25T08:03:46.943Z,9.40
2017-04-25T08:04:50.917Z,9.40
2017-04-25T08:05:54.859Z,9.40
2017-04-25T08:06:59.196Z,9.30
2017-04-25T08:08:03.209Z,9.30
2017-04-25T08:09:07.677Z,9.20
2017-04-25T08:10:11.757Z,9.10
2017-04-25T08:11:15.878Z,9.10
2017-04-25T08:12:19.811Z,9.20
2017-04-25T08:13:23.653Z,9.20
2017-04-25T08:14:28.476Z,9.20
2017-04-25T08:15:32.835Z,9.20
2017-04-25T08:16:37.001Z,9.20
2017-04-25T08:17:40.854Z,9.20
2017-04-25T08:18:44.591Z,9.20
2017-04-25T08:19:47.908Z,9.10
2017-04-25T08:20:51.944Z,9.10
2017-04-25T08:21:55.742Z,9.20
2017-04-25T08:23:00.674Z,9.20
2017-04-25T08:24:04.912Z,9.20
2017-04-25T08:25:08.487Z,9.10
2017-04-25T08:26:12.153Z,9.20
2017-04-25T08:27:16.291Z,9.20
2017-04-25T08:28:20.437Z,9.20
2017-04-25T08:29:24.350Z,9.20
2017-04-25T08:30:29.041Z,9.20
2017-04-25T08:31:33.721Z,9.20
2017-04-25T08:32:37.610Z,9.20
2017-04-25T08:33:41.612Z,9.20
2017-04-25T08:34:45.278Z,9.20
2017-04-25T08:35:50.137Z,9.20
2017-04-25T08:36:53.958Z,9.20
2017-04-25T08:37:57.864Z,9.20
2017-04-25T08:39:01.904Z,9.30
2017-04-25T08:40:05.908Z,9.30
2017-04-25T08:41:10.004Z,9.30
2017-04-25T08:42:13.995Z,9.40
2017-04-25T08:43:17.882Z,9.40
2017-04-25T08:44:22.142Z,9.40
2017-04-25T08:45:26.205Z,9.40
2017-04-25T08:46:30.090Z,9.40
2017-04-25T08:47:34.075Z,9.50
2017-04-25T08:48:38.209Z,9.50
2017-04-25T08:49:42.053Z,9.50
2017-04-25T08:50:45.458Z,9.60
2017-04-25T08:51:49.609Z,9.60
2017-04-25T08:52:53.746Z,9.60
2017-04-25T08:53:57.724Z,9.50
2017-04-25T08:55:01.601Z,9.50
2017-04-25T08:56:05.456Z,9.40
2017-04-25T08:57:09.102Z,9.40
2017-04-25T08:58:13.097Z,9.40
2017-04-25T08:59:17.262Z,9.40
2017-04-25T09:00:21.342Z,9.40
2017-04-25T09:01:25.713Z,9.40
2017-04-25T09:02:30.962Z,9.40
2017-04-25T09:03:35.187Z,9.30
2017-04-25T09:04:39.215Z,9.20
2017-04-25T09:05:43.356Z,9.20
2017-04-25T09:06:47.432Z,9.10
2017-04-25T09:07:51.518Z,9.10
2017-04-25T09:08:55.138Z,9.00
2017-04-25T09:09:58.979Z,9.10
2017-04-25T09:11:03.239Z,9.10
2017-04-25T09:12:07.633Z,9.00
2017-04-25T09:13:11.369Z,9.00
2017-04-25T09:14:15.688Z,9.00
2017-04-25T09:15:19.500Z,9.10
2017-04-25T09:16:24.358Z,9.10
2017-04-25T09:17:28.476Z,9.10
2017-04-25T09:18:32.353Z,9.00
2017-04-25T09:19:36.550Z,9.00
2017-04-25T09:20:40.706Z,9.10
2017-04-25T09:21:44.611Z,9.00
2017-04-25T09:22:48.472Z,9.00
2017-04-25T09:23:52.374Z,9.00
2017-04-25T09:24:55.981Z,9.00
2017-04-25T09:25:59.922Z,9.00
2017-04-25T09:27:03.863Z,9.00
2017-04-25T09:28:08.054Z,9.00
2017-04-25T09:29:11.843Z,9.10
2017-04-25T09:30:16.141Z,9.10
2017-04-25T09:31:19.944Z,9.10
2017-04-25T09:32:23.914Z,9.00
2017-04-25T09:33:27.782Z,9.00
2017-04-25T09:34:32.327Z,9.00
2017-04-25T09:35:36.316Z,9.00
2017-04-25T09:36:40.472Z,9.00
2017-04-25T09:37:44.631Z,8.90
2017-04-25T09:38:48.615Z,8.90
2017-04-25T09:39:52.341Z,8.90
2017-04-25T09:40:56.195Z,8.90
2017-04-25T09:42:01.063Z,8.80
2017-04-25T09:43:04.976Z,8.90
2017-04-25T09:44:09.039Z,8.80
2017-04-25T09:45:13.045Z,8.80
2017-04-25T09:46:17.000Z,8.90
2017-04-25T09:47:21.114Z,8.80
2017-04-25T09:48:25.258Z,8.80
2017-04-25T09:49:29.357Z,8.80
2017-04-25T09:50:33.391Z,8.80
2017-04-25T09:51:37.466Z,8.70
2017-04-25T09:52:41.456Z,8.70
2017-04-25T09:53:45.697Z,8.60
2017-04-25T09:54:49.768Z,8.60
2017-04-25T09:55:53.740Z,8.60
2017-04-25T09:56:57.867Z,8.60
2017-04-25T09:58:01.723Z,8.50
2017-04-25T09:59:05.634Z,8.50
2017-04-25T10:00:09.580Z,8.50
2017-04-25T10:01:13.780Z,8.60
2017-04-25T10:02:18.063Z,8.60
2017-04-25T10:03:22.859Z,8.60
2017-04-25T10:04:26.679Z,8.70
2017-04-25T10:05:31.165Z,8.60
2017-04-25T10:06:35.531Z,8.70
2017-04-25T10:07:39.590Z,8.60
2017-04-25T10:08:43.693Z,8.70
2017-04-25T10:09:48.610Z,8.60
2017-04-25T10:10:52.349Z,8.60
2017-04-25T10:11:55.939Z,8.60
2017-04-25T10:13:00.285Z,8.70
2017-04-25T10:14:04.195Z,8.60
2017-04-25T10:15:08.014Z,8.60
2017-04-25T10:16:12.871Z,8.60
2017-04-25T10:17:16.742Z,8.60
2017-04-25T10:18:20.912Z,8.60
2017-04-25T10:19:25.846Z,8.60
2017-04-25T10:20:29.908Z,8.70
2017-04-25T10:21:33.453Z,8.70
2017-04-25T10:22:37.216Z,8.70
2017-04-25T10:23:40.823Z,8.70
2017-04-25T10:24:44.693Z,8.70
2017-04-25T10:25:48.474Z,8.60
2017-04-25T10:26:52.676Z,8.60
2017-04-25T10:27:56.774Z,8.60
2017-04-25T10:29:00.645Z,8.50
2017-04-25T10:30:04.497Z,8.40
2017-04-25T10:31:08.535Z,8.50
2017-04-25T10:32:12.627Z,8.40
2017-04-25T10:33:16.547Z,8.40
2017-04-25T10:34:20.976Z,8.40
2017-04-25T10:35:24.682Z,8.40
2017-04-25T10:36:28.573Z,8.50
2017-04-25T10:37:32.837Z,8.40
2017-04-25T10:38:36.605Z,8.50
2017-04-25T10:39:40.386Z,8.40
2017-04-25T10:40:44.436Z,8.30
2017-04-25T10:41:48.134Z,8.30
2017-04-25T10:42:51.885Z,8.20
2017-04-25T10:43:55.707Z,8.20
2017-04-25T10:44:59.773Z,8.30
2017-04-25T10:46:03.623Z,8.30
2017-04-25T10:47:07.829Z,8.40
2017-04-25T10:48:11.545Z,8.30
2017-04-25T10:49:15.450Z,8.30
2017-04-25T10:50:19.536Z,8.30
2017-04-25T10:51:23.513Z,8.30
2017-04-25T10:52:27.726Z,8.30
2017-04-25T10:53:32.046Z,8.30
2017-04-25T10:54:36.014Z,8.30
2017-04-25T10:55:41.005Z,8.30
2017-04-25T10:56:45.122Z,8.30
2017-04-25T10:57:49.215Z,8.30
2017-04-25T10:58:53.026Z,8.30
2017-04-25T10:59:57.604Z,8.30
2017-04-25T11:01:01.596Z,8.40
2017-04-25T11:02:05.707Z,8.30
2017-04-25T11:03:09.579Z,8.40
2017-04-25T11:04:14.531Z,8.40
2017-04-25T11:05:18.646Z,8.40
2017-04-25T11:06:23.182Z,8.40
2017-04-25T11:07:27.445Z,8.30
2017-04-25T11:08:31.901Z,8.40
2017-04-25T11:09:36.411Z,8.40
2017-04-25T11:10:41.003Z,8.40
2017-04-25T11:11:45.148Z,8.40
2017-04-25T11:12:49.397Z,8.50
2017-04-25T11:13:53.603Z,8.50
2017-04-25T11:14:57.915Z,8.50
2017-04-25T11:16:02.190Z,8.60
2017-04-25T11:17:06.496Z,8.60
2017-04-25T11:18:10.922Z,8.60
2017-04-25T11:19:15.303Z,8.60
2017-04-25T11:20:19.604Z,8.60
2017-04-25T11:21:23.626Z,8.60
2017-04-25T11:22:27.909Z,8.60
2017-04-25T11:23:32.394Z,8.60
2017-04-25T11:24:36.610Z,8.60
2017-04-25T11:25:41.077Z,8.60
2017-04-25T11:26:45.331Z,8.60
2017-04-25T11:27:49.804Z,8.60
2017-04-25T11:28:54.087Z,8.70
2017-04-25T11:29:58.292Z,8.70
2017-04-25T11:31:02.121Z,8.70
2017-04-25T11:32:06.061Z,8.70
2017-04-25T11:33:10.202Z,8.70
2017-04-25T11:34:14.737Z,8.70
2017-04-25T11:35:18.619Z,8.60
2017-04-25T11:36:22.739Z,8.60
2017-04-25T11:37:26.790Z,8.60
2017-04-25T11:38:31.090Z,8.70
2017-04-25T11:39:35.750Z,8.60
2017-04-25T11:40:39.797Z,8.60
2017-04-25T11:41:43.785Z,8.60
2017-04-25T11:42:47.677Z,8.60
2017-04-25T11:43:51.685Z,8.60
2017-04-25T11:44:55.658Z,8.60
2017-04-25T11:45:59.746Z,8.60
2017-04-25T11:47:03.657Z,8.70
2017-04-25T11:48:07.691Z,8.70
2017-04-25T11:49:11.468Z,8.70
2017-04-25T11:50:15.386Z,8.60
2017-04-25T11:51:19.481Z,8.60
2017-04-25T11:52:23.455Z,8.60
2017-04-25T11:53:27.615Z,8.60
2017-04-25T11:54:31.589Z,8.60
2017-04-25T11:55:35.713Z,8.60
2017-04-25T11:56:39.494Z,8.70
2017-04-25T11:57:44.312Z,8.70
2017-04-25T11:58:48.351Z,8.70
2017-04-25T11:59:52.206Z,8.80
2017-04-25T12:00:56.216Z,8.80
2017-04-25T12:02:00.303Z,8.80
2017-04-25T12:03:04.398Z,8.90
2017-04-25T12:04:09.173Z,8.90
2017-04-25T12:05:15.981Z,8.90
2017-04-25T12:06:19.773Z,8.90
2017-04-25T12:07:23.849Z,8.90
2017-04-25T12:08:28.066Z,8.90
2017-04-25T12:09:31.960Z,8.90
2017-04-25T12:10:35.921Z,8.90
2017-04-25T12:11:40.068Z,8.90
2017-04-25T12:12:44.181Z,8.90
2017-04-25T12:13:48.058Z,8.90
2017-04-25T12:14:51.729Z,8.90
2017-04-25T12:15:55.607Z,8.90
2017-04-25T12:17:00.618Z,9.00
2017-04-25T12:18:05.161Z,8.90
2017-04-25T12:19:08.907Z,8.90
2017-04-25T12:20:12.718Z,9.00
2017-04-25T12:21:16.554Z,8.90
2017-04-25T12:22:21.619Z,8.80
2017-04-25T12:23:25.723Z,8.80
2017-04-25T12:24:29.541Z,8.80
2017-04-25T12:25:33.250Z,8.80
2017-04-25T12:26:37.322Z,8.80
2017-04-25T12:27:41.218Z,8.90
2017-04-25T12:28:45.079Z,8.90
2017-04-25T12:29:49.924Z,8.90
2017-04-25T12:30:53.697Z,8.80
2017-04-25T12:31:57.905Z,8.90
2017-04-25T12:33:01.676Z,8.80
2017-04-25T12:34:05.598Z,8.70
2017-04-25T12:35:09.503Z,8.80
2017-04-25T12:36:13.482Z,8.80
2017-04-25T12:37:17.861Z,8.80
2017-04-25T12:38:21.520Z,8.80
2017-04-25T12:39:25.757Z,8.80
2017-04-25T12:40:29.530Z,8.90
2017-04-25T12:41:33.389Z,8.80
2017-04-25T12:42:37.955Z,8.70
2017-04-25T12:43:41.873Z,8.70
2017-04-25T12:44:45.437Z,8.80
2017-04-25T12:45:49.355Z,8.70
2017-04-25T12:46:53.214Z,8.70
2017-04-25T12:47:57.040Z,8.70
2017-04-25T12:49:01.013Z,8.70
2017-04-25T12:50:04.797Z,8.70
2017-04-25T12:51:08.996Z,8.80
2017-04-25T12:52:12.898Z,8.80
2017-04-25T12:53:16.989Z,8.80
2017-04-25T12:54:21.010Z,8.90
2017-04-25T12:55:25.033Z,8.90
2017-04-25T12:56:29.026Z,8.80
2017-04-25T12:57:33.150Z,8.80
2017-04-25T12:58:37.007Z,8.90
2017-04-25T12:59:41.033Z,8.90
2017-04-25T13:00:45.193Z,8.90
2017-04-25T13:01:49.374Z,9.00
2017-04-25T13:02:53.157Z,8.90
2017-04-25T13:03:57.334Z,8.90
2017-04-25T13:05:02.197Z,8.90
2017-04-25T13:06:06.804Z,8.80
2017-04-25T13:07:11.157Z,8.80
2017-04-25T13:08:15.408Z,8.90
2017-04-25T13:09:19.424Z,8.90
2017-04-25T13:10:23.661Z,9.00
2017-04-25T13:11:27.714Z,9.10
2017-04-25T13:12:31.673Z,9.00
2017-04-25T13:13:35.792Z,9.10
2017-04-25T13:14:39.628Z,9.10
2017-04-25T13:15:43.709Z,9.10
2017-04-25T13:16:47.603Z,9.20
2017-04-25T13:17:51.315Z,9.10
2017-04-25T13:18:55.430Z,9.20
2017-04-25T13:19:58.953Z,9.20
2017-04-25T13:21:02.446Z,9.30
2017-04-25T13:22:06.207Z,9.30
2017-04-25T13:23:09.951Z,9.40
2017-04-25T13:24:14.145Z,9.40
2017-04-25T13:25:17.963Z,9.50
2017-04-25T13:26:21.798Z,9.50
2017-04-25T13:27:25.820Z,9.50
2017-04-25T13:28:29.989Z,9.50
2017-04-25T13:29:35.144Z,9.60
2017-04-25T13:30:39.180Z,9.60
2017-04-25T13:31:42.972Z,9.70
2017-04-25T13:32:47.026Z,9.70
2017-04-25T13:33:51.040Z,9.80
2017-04-25T13:34:55.075Z,9.80
2017-04-25T13:35:59.210Z,9.80
2017-04-25T13:37:03.148Z,9.80
2017-04-25T13:38:07.741Z,9.80
2017-04-25T13:39:11.670Z,9.90
2017-04-25T13:40:15.406Z,9.90
2017-04-25T13:41:19.481Z,9.90
2017-04-25T13:42:23.377Z,10.00
2017-04-25T13:43:27.321Z,10.00
2017-04-25T13:44:32.309Z,10.00
2017-04-25T13:45:36.455Z,10.00
2017-04-25T13:46:41.374Z,10.00
2017-04-25T13:47:45.655Z,10.00
2017-04-25T13:48:49.578Z,10.10
2017-04-25T13:49:53.491Z,10.10
2017-04-25T13:50:57.327Z,10.10
2017-04-25T13:52:01.538Z,10.10
2017-04-25T13:53:05.678Z,10.00
2017-04-25T13:54:09.567Z,10.00
2017-04-25T13:55:13.470Z,9.90
2017-04-25T13:56:17.554Z,9.90
2017-04-25T13:57:21.663Z,9.80
2017-04-25T13:58:25.733Z,9.80